createdAt,value
2023-10-24T00:03:36.132Z,100665.29
2023-10-24T00:06:04.815Z,100661.98
2023-10-24T00:08:33.130Z,100663.08
2023-10-24T00:11:02.850Z,100663.67
2023-10-24T00:13:32.321Z,100666.38
2023-10-24T00:16:02.065Z,100666.60
2023-10-24T00:18:31.273Z,100666.06
2023-10-24T00:21:00.236Z,100668.94
2023-10-24T00:23:29.186Z,100673.95
2023-10-24T00:25:57.871Z,100675.55
2023-10-24T00:28:26.195Z,100670.01
2023-10-24T00:30:54.532Z,100669.30
2023-10-24T00:33:22.909Z,100662.48
2023-10-24T00:35:51.868Z,100657.30
2023-10-24T00:38:20.585Z,100658.21
2023-10-24T00:40:49.153Z,100660.05
2023-10-24T00:43:17.921Z,100666.20
2023-10-24T00:45:46.626Z,100677.73
2023-10-24T00:48:15.762Z,100685.11
2023-10-24T00:50:44.702Z,100688.55
2023-10-24T00:53:13.861Z,100690.60
2023-10-24T00:55:43.047Z,100690.09
2023-10-24T00:58:12.366Z,100689.75
2023-10-24T01:00:45.792Z,100697.66
2023-10-24T01:03:16.022Z,100696.59
2023-10-24T01:05:45.543Z,100694.45
2023-10-24T01:08:13.885Z,100692.30
2023-10-24T01:10:42.851Z,100693.73
2023-10-24T01:13:11.443Z,100697.33
2023-10-24T01:15:39.908Z,100694.82
2023-10-24T01:18:08.200Z,100691.95
2023-10-24T01:20:37.201Z,100693.23
2023-10-24T01:23:06.413Z,100701.52
2023-10-24T01:25:40.409Z,100704.94
2023-10-24T01:28:10.731Z,100695.11
2023-10-24T01:30:41.060Z,100690.83
2023-10-24T01:33:09.782Z,100689.73
2023-10-24T01:35:38.285Z,100696.06
2023-10-24T01:38:07.327Z,100702.33
2023-10-24T01:40:35.839Z,100700.55
2023-10-24T01:43:04.991Z,100700.40
2023-10-24T01:45:34.555Z,100706.70
2023-10-24T01:48:03.216Z,100700.80
2023-10-24T01:50:31.555Z,100702.45
2023-10-24T01:53:00.026Z,100708.73
2023-10-24T01:55:29.074Z,100705.52
2023-10-24T01:57:57.468Z,100698.52
2023-10-24T02:00:26.036Z,100693.88
2023-10-24T02:02:55.904Z,100709.10
2023-10-24T02:05:24.966Z,100719.34
2023-10-24T02:07:53.339Z,100719.36
2023-10-24T02:10:21.692Z,100724.20
2023-10-24T02:12:50.161Z,100728.86
2023-10-24T02:15:18.571Z,100730.84
2023-10-24T02:17:47.193Z,100733.00
2023-10-24T02:20:15.992Z,100731.95
2023-10-24T02:22:48.731Z,100724.23
2023-10-24T02:25:17.441Z,100728.00
2023-10-24T02:27:46.080Z,100715.66
2023-10-24T02:30:14.988Z,100713.54
2023-10-24T02:32:43.698Z,100717.18
2023-10-24T02:35:12.009Z,100716.85
2023-10-24T02:37:40.711Z,100719.55
2023-10-24T02:40:10.921Z,100725.66
2023-10-24T02:42:39.381Z,100729.10
2023-10-24T02:45:08.453Z,100731.28
2023-10-24T02:47:36.936Z,100731.47
2023-10-24T02:50:06.280Z,100729.48
2023-10-24T02:52:34.728Z,100733.44
2023-10-24T02:55:03.252Z,100726.09
2023-10-24T02:57:31.619Z,100731.11
2023-10-24T03:00:00.146Z,100735.77
2023-10-24T03:02:28.641Z,100735.46
2023-10-24T03:04:57.130Z,100749.66
2023-10-24T03:07:25.459Z,100762.38
2023-10-24T03:09:54.064Z,100752.73
2023-10-24T03:12:22.213Z,100746.45
2023-10-24T03:14:52.763Z,100752.02
2023-10-24T03:17:21.395Z,100759.91
2023-10-24T03:19:49.857Z,100761.89
2023-10-24T03:22:18.237Z,100765.32
2023-10-24T03:24:47.070Z,100767.86
2023-10-24T03:27:15.307Z,100766.42
2023-10-24T03:29:44.844Z,100764.66
2023-10-24T03:32:13.165Z,100762.52
2023-10-24T03:34:43.639Z,100765.98
2023-10-24T03:37:12.133Z,100768.16
2023-10-24T03:39:40.790Z,100769.24
2023-10-24T03:42:09.057Z,100777.52
2023-10-24T03:44:38.045Z,100775.94
2023-10-24T03:47:07.377Z,100775.42
2023-10-24T03:49:35.890Z,100779.02
2023-10-24T03:52:05.275Z,100778.68
2023-10-24T03:54:33.785Z,100778.16
2023-10-24T03:57:02.933Z,100786.42
2023-10-24T03:59:31.337Z,100797.73
2023-10-24T04:01:59.671Z,100802.23
2023-10-24T04:04:30.880Z,100796.89
2023-10-24T04:06:59.241Z,100796.58
2023-10-24T04:09:38.164Z,100802.70
2023-10-24T04:12:07.913Z,100804.71
2023-10-24T04:14:36.831Z,100807.06
2023-10-24T04:17:06.405Z,100805.31
2023-10-24T04:19:35.232Z,100804.80
2023-10-24T04:22:03.813Z,100803.95
2023-10-24T04:24:32.185Z,100806.67
2023-10-24T04:27:00.739Z,100810.11
2023-10-24T04:29:28.969Z,100815.89
2023-10-24T04:31:57.260Z,100824.52
2023-10-24T04:34:26.255Z,100828.14
2023-10-24T04:36:57.860Z,100828.02
2023-10-24T04:39:28.458Z,100836.84
2023-10-24T04:41:56.696Z,100846.01
2023-10-24T04:44:26.317Z,100851.42
2023-10-24T04:46:54.829Z,100851.45
2023-10-24T04:49:24.185Z,100858.10
2023-10-24T04:51:53.508Z,100860.45
2023-10-24T04:54:23.113Z,100867.63
2023-10-24T04:56:51.568Z,100865.34
2023-10-24T04:59:20.468Z,100864.09
2023-10-24T05:01:50.706Z,100864.30
2023-10-24T05:04:22.553Z,100862.73
2023-10-24T05:06:52.192Z,100864.71
2023-10-24T05:09:21.114Z,100867.08
2023-10-24T05:11:50.589Z,100871.38
2023-10-24T05:14:19.500Z,100874.63
2023-10-24T05:16:55.359Z,100881.98
2023-10-24T05:19:24.749Z,100885.77
2023-10-24T05:21:54.195Z,100885.27
2023-10-24T05:24:22.539Z,100889.92
2023-10-24T05:26:51.788Z,100890.11
2023-10-24T05:29:20.624Z,100896.38
2023-10-24T05:31:49.025Z,100897.43
2023-10-24T05:34:17.606Z,100902.46
2023-10-24T05:36:47.605Z,100906.95
2023-10-24T05:39:16.407Z,100908.57
2023-10-24T05:41:44.721Z,100913.77
2023-10-24T05:44:13.158Z,100916.30
2023-10-24T05:46:42.411Z,100909.89
2023-10-24T05:49:11.462Z,100912.04
2023-10-24T05:51:40.044Z,100917.25
2023-10-24T05:54:08.857Z,100918.70
2023-10-24T05:56:37.728Z,100917.29
2023-10-24T05:59:06.005Z,100916.95
2023-10-24T06:01:34.499Z,100924.64
2023-10-24T06:04:03.270Z,100930.38
2023-10-24T06:06:31.801Z,100931.64
2023-10-24T06:09:00.109Z,100943.63
2023-10-24T06:11:29.017Z,100942.20
2023-10-24T06:13:57.491Z,100944.36
2023-10-24T06:16:25.946Z,100945.97
2023-10-24T06:18:54.359Z,100949.02
2023-10-24T06:21:24.403Z,100947.95
2023-10-24T06:23:53.731Z,100958.87
2023-10-24T06:26:22.287Z,100967.63
2023-10-24T06:28:50.660Z,100969.95
2023-10-24T06:31:19.271Z,100968.88
2023-10-24T06:33:47.734Z,100972.45
2023-10-24T06:36:16.026Z,100967.96
2023-10-24T06:38:44.313Z,100974.21
2023-10-24T06:41:12.726Z,100981.36
2023-10-24T06:43:41.252Z,100980.63
2023-10-24T06:46:09.681Z,100988.67
2023-10-24T06:48:38.453Z,100997.98
2023-10-24T06:51:06.849Z,101000.77
2023-10-24T06:53:35.389Z,101004.48
2023-10-24T06:56:04.691Z,101003.20
2023-10-24T06:58:33.010Z,101007.40
2023-10-24T07:01:01.814Z,101011.73
2023-10-24T07:03:30.226Z,101011.20
2023-10-24T07:05:59.427Z,101012.45
2023-10-24T07:08:27.770Z,101015.60
2023-10-24T07:10:56.416Z,101021.55
2023-10-24T07:13:24.940Z,101030.58
2023-10-24T07:15:53.413Z,101034.46
2023-10-24T07:18:21.991Z,101042.05
2023-10-24T07:20:50.346Z,101044.00
2023-10-24T07:23:18.762Z,101047.52
2023-10-24T07:25:47.906Z,101051.24
2023-10-24T07:28:16.931Z,101052.48
2023-10-24T07:30:50.252Z,101060.05
2023-10-24T07:33:23.036Z,101066.05
2023-10-24T07:35:51.464Z,101070.45
2023-10-24T07:38:20.133Z,101074.27
2023-10-24T07:40:51.439Z,101077.97
2023-10-24T07:43:19.964Z,101078.97
2023-10-24T07:45:52.417Z,101082.04
2023-10-24T07:48:22.038Z,101084.02
2023-10-24T07:50:55.297Z,101085.19
2023-10-24T07:53:25.850Z,101091.95
2023-10-24T07:55:54.847Z,101095.55
2023-10-24T07:58:26.469Z,101097.37
2023-10-24T08:00:55.643Z,101107.34
2023-10-24T08:03:24.030Z,101107.52
2023-10-24T08:05:53.828Z,101104.08
2023-10-24T08:08:23.443Z,101105.52
2023-10-24T08:10:53.166Z,101103.20
2023-10-24T08:13:21.773Z,101104.16
2023-10-24T08:15:53.503Z,101104.20
2023-10-24T08:18:23.133Z,101109.43
2023-10-24T08:20:51.552Z,101113.95
2023-10-24T08:23:21.556Z,101118.42
2023-10-24T08:25:49.973Z,101124.23
2023-10-24T08:28:20.078Z,101131.52
2023-10-24T08:30:54.798Z,101131.80
2023-10-24T08:33:23.509Z,101133.22
2023-10-24T08:35:52.063Z,101134.15
2023-10-24T08:38:22.724Z,101134.30
2023-10-24T08:40:51.444Z,101132.49
2023-10-24T08:43:24.131Z,101134.09
2023-10-24T08:45:53.591Z,101136.97
2023-10-24T08:48:25.152Z,101149.05
2023-10-24T08:50:53.789Z,101153.02
2023-10-24T08:53:22.186Z,101159.02
2023-10-24T08:55:51.909Z,101155.55
2023-10-24T08:58:22.128Z,101160.29
2023-10-24T09:00:52.458Z,101162.31
2023-10-24T09:03:23.862Z,101164.79
2023-10-24T09:05:53.553Z,101169.56
2023-10-24T09:08:21.931Z,101173.03
2023-10-24T09:10:50.761Z,101176.62
2023-10-24T09:13:19.580Z,101175.66
2023-10-24T09:16:06.349Z,101173.91
2023-10-24T09:18:36.953Z,101164.95
2023-10-24T09:21:10.095Z,101165.77
2023-10-24T09:23:39.413Z,101162.90
2023-10-24T09:26:09.275Z,101166.02
2023-10-24T09:28:38.452Z,101164.08
2023-10-24T09:31:06.738Z,101166.23
2023-10-24T09:33:42.053Z,101169.01
2023-10-24T09:36:15.675Z,101167.98
2023-10-24T09:38:47.087Z,101169.25
2023-10-24T09:41:15.575Z,101173.67
2023-10-24T09:43:49.332Z,101171.02
2023-10-24T09:46:20.403Z,101168.64
2023-10-24T09:48:48.998Z,101169.20
2023-10-24T09:51:23.058Z,101161.66
2023-10-24T09:53:53.150Z,101164.87
2023-10-24T09:56:22.672Z,101157.35
2023-10-24T09:58:52.769Z,101159.38
2023-10-24T10:01:22.567Z,101161.42
2023-10-24T10:03:51.775Z,101157.05
2023-10-24T10:06:33.115Z,101159.24
2023-10-24T10:09:13.434Z,101162.60
2023-10-24T10:11:46.518Z,101161.45
2023-10-24T10:14:30.722Z,101165.27
2023-10-24T10:16:59.024Z,101162.63
2023-10-24T10:19:52.735Z,101160.36
2023-10-24T10:22:42.421Z,101157.84
2023-10-24T10:25:32.653Z,101152.91
2023-10-24T10:28:17.281Z,101147.98
2023-10-24T10:32:39.836Z,101141.81
2023-10-24T10:33:56.158Z,101137.91
2023-10-24T10:36:26.443Z,101139.55
2023-10-24T10:38:54.929Z,101133.43
2023-10-24T10:41:26.095Z,101127.45
2023-10-24T10:43:56.696Z,101121.76
2023-10-24T10:46:34.218Z,101119.93
2023-10-24T10:49:04.984Z,101116.66
2023-10-24T10:51:40.646Z,101117.98
2023-10-24T10:54:21.409Z,101109.88
2023-10-24T10:56:50.556Z,101106.44
2023-10-24T10:59:33.578Z,101102.90
2023-10-24T11:02:26.402Z,101099.00
2023-10-24T11:04:54.753Z,101091.74
2023-10-24T11:07:52.579Z,101087.84
2023-10-24T11:10:21.086Z,101082.70
2023-10-24T11:12:49.839Z,101079.41
2023-10-24T11:15:24.123Z,101063.52
2023-10-24T11:17:53.892Z,101063.92
2023-10-24T11:20:23.965Z,101055.52
2023-10-24T11:22:52.648Z,101056.82
2023-10-24T11:25:21.154Z,101055.83
2023-10-24T11:27:49.797Z,101048.05
2023-10-24T11:30:19.173Z,101044.90
2023-10-24T11:32:47.676Z,101030.36
2023-10-24T11:35:16.131Z,101027.15
2023-10-24T11:37:44.383Z,101030.41
2023-10-24T11:40:13.342Z,101022.73
2023-10-24T11:42:41.865Z,101020.95
2023-10-24T11:45:10.648Z,101007.27
2023-10-24T11:47:38.982Z,100994.10
2023-10-24T11:50:07.892Z,100995.20
2023-10-24T11:52:36.424Z,100992.50
2023-10-24T11:55:05.796Z,100985.86
2023-10-24T11:57:34.290Z,100978.27
2023-10-24T12:00:02.591Z,100975.30
2023-10-24T12:02:41.884Z,100976.58
2023-10-24T12:05:10.643Z,100975.77
2023-10-24T12:07:39.066Z,100968.53
2023-10-24T12:10:11.790Z,100963.27
2023-10-24T12:12:43.516Z,100959.77
2023-10-24T12:15:12.333Z,100954.58
2023-10-24T12:17:45.030Z,100946.52
2023-10-24T12:20:14.119Z,100944.32
2023-10-24T12:22:42.967Z,100946.70
2023-10-24T12:25:11.502Z,100948.37
2023-10-24T12:27:41.590Z,100942.98
2023-10-24T12:30:10.160Z,100934.55
2023-10-24T12:32:39.254Z,100935.55
2023-10-24T12:35:08.107Z,100929.77
2023-10-24T12:37:37.421Z,100923.40
2023-10-24T12:40:06.571Z,100920.45
2023-10-24T12:42:35.341Z,100922.87
2023-10-24T12:45:05.019Z,100918.48
2023-10-24T12:47:34.105Z,100913.44
2023-10-24T12:50:02.630Z,100913.34
2023-10-24T12:52:31.333Z,100912.13
2023-10-24T12:54:59.745Z,100901.23
2023-10-24T12:57:28.158Z,100904.55
2023-10-24T12:59:56.794Z,100899.16
2023-10-24T13:02:25.219Z,100896.61
2023-10-24T13:04:54.359Z,100890.66
2023-10-24T13:07:22.648Z,100878.17
2023-10-24T13:09:50.966Z,100883.13
2023-10-24T13:12:19.445Z,100878.57
2023-10-24T13:14:47.702Z,100874.24
2023-10-24T13:17:16.534Z,100881.20
2023-10-24T13:19:47.267Z,100873.90
2023-10-24T13:22:15.610Z,100869.52
2023-10-24T13:24:43.959Z,100862.09
2023-10-24T13:27:12.334Z,100861.13
2023-10-24T13:29:40.970Z,100863.48
2023-10-24T13:32:09.763Z,100863.46
2023-10-24T13:37:10.282Z,100864.23
2023-10-24T13:39:39.119Z,100861.77
2023-10-24T13:42:07.518Z,100856.38
2023-10-24T13:44:36.229Z,100855.30
2023-10-24T13:47:04.740Z,100862.31
2023-10-24T13:49:33.186Z,100862.31
2023-10-24T13:52:02.620Z,100867.85
2023-10-24T13:54:31.138Z,100849.61
2023-10-24T13:56:59.451Z,100851.84
2023-10-24T13:59:27.702Z,100858.54
2023-10-24T14:01:56.070Z,100863.79
2023-10-24T14:04:24.731Z,100857.81
2023-10-24T14:06:53.126Z,100857.89
2023-10-24T14:09:21.696Z,100854.19
2023-10-24T14:11:49.936Z,100856.23
2023-10-24T14:14:18.246Z,100861.52
2023-10-24T14:16:47.041Z,100854.40
2023-10-24T14:19:15.399Z,100856.41
2023-10-24T14:21:43.711Z,100851.77
2023-10-24T14:24:12.615Z,100845.86
2023-10-24T14:26:40.792Z,100845.05
2023-10-24T14:29:09.176Z,100839.45
2023-10-24T14:31:37.789Z,100847.31
2023-10-24T14:34:06.239Z,100847.08
2023-10-24T14:36:34.536Z,100845.46
2023-10-24T14:39:02.956Z,100831.59
2023-10-24T14:41:31.480Z,100836.82
2023-10-24T14:44:00.438Z,100842.10
2023-10-24T14:46:29.061Z,100840.87
2023-10-24T14:48:57.582Z,100840.65
2023-10-24T14:51:26.568Z,100835.05
2023-10-24T14:53:55.406Z,100844.17
2023-10-24T14:56:23.751Z,100843.52
2023-10-24T14:58:52.038Z,100840.83
2023-10-24T15:01:20.387Z,100841.95
2023-10-24T15:03:48.828Z,100852.87
2023-10-24T15:06:18.349Z,100837.16
2023-10-24T15:08:47.064Z,100841.88
2023-10-24T15:11:15.289Z,100840.33
2023-10-24T15:13:43.628Z,100841.45
2023-10-24T15:16:12.170Z,100846.11
2023-10-24T15:18:40.759Z,100837.00
2023-10-24T15:21:09.136Z,100833.28
2023-10-24T15:23:37.520Z,100841.41
2023-10-24T15:26:05.997Z,100836.92
2023-10-24T15:28:34.492Z,100843.84
2023-10-24T15:31:08.560Z,100837.08
2023-10-24T15:33:37.108Z,100837.34
2023-10-24T15:36:05.764Z,100834.94
2023-10-24T15:38:34.455Z,100830.33
2023-10-24T15:41:03.022Z,100826.73
2023-10-24T15:43:32.251Z,100828.04
2023-10-24T15:46:18.926Z,100837.29
2023-10-24T15:48:50.899Z,100838.54
2023-10-24T15:51:20.072Z,100843.21
2023-10-24T15:53:48.912Z,100837.83
2023-10-24T15:56:17.492Z,100830.48
2023-10-24T15:58:46.054Z,100828.77
2023-10-24T16:01:19.347Z,100825.08
2023-10-24T16:03:48.095Z,100826.07
2023-10-24T16:06:16.569Z,100824.43
2023-10-24T16:08:44.789Z,100824.45
2023-10-24T16:11:13.772Z,100827.31
2023-10-24T16:13:42.296Z,100824.70
2023-10-24T16:16:11.540Z,100826.06
2023-10-24T16:18:40.088Z,100821.66
2023-10-24T16:21:08.484Z,100819.77
2023-10-24T16:23:37.110Z,100827.92
2023-10-24T16:26:05.874Z,100823.84
2023-10-24T16:28:34.524Z,100828.10
2023-10-24T16:31:02.922Z,100831.11
2023-10-24T16:33:31.421Z,100837.81
2023-10-24T16:36:02.387Z,100840.15
2023-10-24T16:38:30.980Z,100840.38
2023-10-24T16:41:00.178Z,100830.92
2023-10-24T16:43:29.913Z,100833.34
2023-10-24T16:45:59.032Z,100836.47
2023-10-24T16:48:27.430Z,100835.96
2023-10-24T16:50:57.547Z,100842.95
2023-10-24T16:53:27.293Z,100851.41
2023-10-24T16:55:57.082Z,100850.56
2023-10-24T16:58:26.148Z,100848.93
2023-10-24T17:00:56.212Z,100850.72
2023-10-24T17:03:24.669Z,100854.60
2023-10-24T17:05:54.190Z,100855.80
2023-10-24T17:08:22.659Z,100856.35
2023-10-24T17:10:59.037Z,100856.48
2023-10-24T17:13:27.630Z,100850.34
2023-10-24T17:15:59.839Z,100851.14
2023-10-24T17:18:28.250Z,100865.59
2023-10-24T17:20:56.796Z,100859.73
2023-10-24T17:23:25.980Z,100859.20
2023-10-24T17:25:54.753Z,100860.50
2023-10-24T17:28:23.123Z,100867.04
2023-10-24T17:30:52.692Z,100869.95
2023-10-24T17:33:21.104Z,100877.90
2023-10-24T17:35:50.975Z,100878.89
2023-10-24T17:38:19.620Z,100881.60
2023-10-24T17:40:48.174Z,100893.49
2023-10-24T17:43:16.540Z,100894.09
2023-10-24T17:45:45.050Z,100899.69
2023-10-24T17:48:13.513Z,100898.84
2023-10-24T17:50:42.321Z,100892.23
2023-10-24T17:53:11.522Z,100897.70
2023-10-24T17:55:41.752Z,100903.35
2023-10-24T17:58:10.291Z,100908.20
2023-10-24T18:00:38.726Z,100912.66
2023-10-24T18:03:07.143Z,100914.14
2023-10-24T18:05:38.686Z,100917.77
2023-10-24T18:08:07.940Z,100922.61
2023-10-24T18:10:36.656Z,100923.36
2023-10-24T18:13:05.032Z,100927.48
2023-10-24T18:15:33.836Z,100927.64
2023-10-24T18:18:02.282Z,100926.02
2023-10-24T18:20:34.999Z,100926.33
2023-10-24T18:23:03.402Z,100926.32
2023-10-24T18:25:31.692Z,100927.75
2023-10-24T18:28:00.053Z,100928.05
2023-10-24T18:30:28.388Z,100928.91
2023-10-24T18:32:56.682Z,100934.08
2023-10-24T18:35:25.430Z,100943.20
2023-10-24T18:37:53.722Z,100947.46
2023-10-24T18:40:22.076Z,100950.12
2023-10-24T18:42:51.107Z,100951.35
2023-10-24T18:45:19.392Z,100955.45
2023-10-24T18:47:47.651Z,100949.88
2023-10-24T18:52:44.780Z,100942.89
2023-10-24T18:55:13.216Z,100947.41
2023-10-24T18:57:41.981Z,100946.33
2023-10-24T19:00:10.682Z,100947.27
2023-10-24T19:02:39.862Z,100953.19
2023-10-24T19:05:08.631Z,100962.02
2023-10-24T19:07:37.405Z,100969.41
2023-10-24T19:10:07.281Z,100969.10
2023-10-24T19:12:36.418Z,100971.61
2023-10-24T19:15:06.611Z,100976.29
2023-10-24T19:17:35.069Z,100974.86
2023-10-24T19:20:04.468Z,100978.98
2023-10-24T19:22:33.280Z,100982.42
2023-10-24T19:25:04.029Z,100979.05
2023-10-24T19:27:34.506Z,100981.77
2023-10-24T19:30:03.115Z,100993.80
2023-10-24T19:32:31.782Z,100995.98
2023-10-24T19:35:00.506Z,100998.90
2023-10-24T19:37:29.946Z,100993.52
2023-10-24T19:39:58.607Z,100991.58
2023-10-24T19:42:27.626Z,100992.48
2023-10-24T19:44:56.809Z,100994.14
2023-10-24T19:47:29.133Z,100993.77
2023-10-24T19:49:57.604Z,100997.73
2023-10-24T19:52:26.341Z,101002.05
2023-10-24T19:54:55.081Z,101007.61
2023-10-24T19:57:23.661Z,101001.71
2023-10-24T19:59:52.071Z,101002.79
2023-10-24T20:02:21.015Z,101004.39
2023-10-24T20:04:50.045Z,101008.34
2023-10-24T20:07:20.530Z,101006.38
2023-10-24T20:11:34.913Z,101010.18
2023-10-24T20:12:43.367Z,101011.13
2023-10-24T20:15:12.742Z,101007.91
2023-10-24T20:17:43.010Z,101013.29
2023-10-24T20:20:13.649Z,101011.48
2023-10-24T20:22:42.610Z,101014.73
2023-10-24T20:25:11.064Z,101014.92
2023-10-24T20:27:40.928Z,101012.98
2023-10-24T20:30:10.120Z,101013.19
2023-10-24T20:32:38.635Z,101012.11
2023-10-24T20:35:07.248Z,101006.94
2023-10-24T20:37:35.697Z,101008.25
2023-10-24T20:40:05.205Z,101012.42
2023-10-24T20:42:34.143Z,101016.81
2023-10-24T20:45:03.337Z,101018.81
2023-10-24T20:47:31.671Z,101023.15
2023-10-24T20:50:00.163Z,101019.59
2023-10-24T20:52:28.774Z,101018.20
2023-10-24T20:54:57.341Z,101012.14
2023-10-24T20:57:25.742Z,101016.66
2023-10-24T20:59:54.391Z,101014.55
2023-10-24T21:02:23.842Z,101014.25
2023-10-24T21:04:52.607Z,101017.33
2023-10-24T21:07:21.338Z,101018.42
2023-10-24T21:09:49.727Z,101018.78
2023-10-24T21:12:18.247Z,101019.86
2023-10-24T21:14:47.733Z,101022.03
2023-10-24T21:17:16.480Z,101023.67
2023-10-24T21:19:45.064Z,101018.47
2023-10-24T21:22:14.128Z,101021.90
2023-10-24T21:24:44.618Z,101019.02
2023-10-24T21:27:13.338Z,101017.04
2023-10-24T21:29:42.293Z,101019.87
2023-10-24T21:32:11.152Z,101013.93
2023-10-24T21:34:40.350Z,101012.50
2023-10-24T21:37:09.301Z,101014.80
2023-10-24T21:39:37.914Z,101014.42
2023-10-24T21:42:06.900Z,101016.21
2023-10-24T21:44:43.521Z,101016.21
2023-10-24T21:47:19.283Z,101014.07
2023-10-24T21:49:47.842Z,101013.87
2023-10-24T21:52:16.348Z,101010.45
2023-10-24T21:54:45.663Z,101003.80
2023-10-24T21:57:14.308Z,101003.06
2023-10-24T21:59:43.565Z,100996.04
2023-10-24T22:02:13.608Z,100992.98
2023-10-24T22:04:42.037Z,100987.95
2023-10-24T22:07:11.086Z,100983.50
2023-10-24T22:09:40.090Z,100986.21
2023-10-24T22:12:08.942Z,100982.10
2023-10-24T22:14:37.342Z,100971.36
2023-10-24T22:17:06.014Z,100969.94
2023-10-24T22:19:34.397Z,100974.98
2023-10-24T22:22:03.128Z,100979.30
2023-10-24T22:24:31.882Z,100980.96
2023-10-24T22:27:00.197Z,100977.75
2023-10-24T22:29:28.550Z,100976.35
2023-10-24T22:31:57.018Z,100976.89
2023-10-24T22:34:25.462Z,100976.21
2023-10-24T22:36:53.817Z,100977.14
2023-10-24T22:39:22.206Z,100974.45
2023-10-24T22:41:50.577Z,100975.92
2023-10-24T22:44:19.212Z,100975.40
2023-10-24T22:46:47.832Z,100976.70
2023-10-24T22:49:16.223Z,100981.39
2023-10-24T22:51:45.756Z,100983.54
2023-10-24T22:54:14.281Z,100992.13
2023-10-24T22:56:42.564Z,100988.54
2023-10-24T22:59:10.842Z,100988.73
2023-10-24T23:01:39.246Z,100981.91
2023-10-24T23:04:07.568Z,100982.60
2023-10-24T23:06:35.989Z,100981.52
2023-10-24T23:09:04.719Z,100978.27
2023-10-24T23:11:33.295Z,100973.41
2023-10-24T23:14:01.852Z,100966.20
2023-10-24T23:16:31.076Z,100960.83
2023-10-24T23:18:59.704Z,100959.36
2023-10-24T23:21:28.167Z,100957.36
2023-10-24T23:23:57.011Z,100956.27
2023-10-24T23:26:25.265Z,100953.42
2023-10-24T23:28:53.674Z,100948.20
2023-10-24T23:31:22.404Z,100947.30
2023-10-24T23:33:54.447Z,100953.02
2023-10-24T23:36:22.916Z,100952.52
2023-10-24T23:38:51.200Z,100947.67
2023-10-24T23:41:20.086Z,100939.04
2023-10-24T23:43:48.750Z,100947.83
2023-10-24T23:46:17.190Z,100952.30
2023-10-24T23:48:45.923Z,100952.13
2023-10-24T23:51:14.354Z,100952.48
2023-10-24T23:53:42.704Z,100957.31
2023-10-24T23:56:11.111Z,100960.58
2023-10-24T23:58:39.716Z,100954.30
